ePrivacy and GPDR Cookie Consent by Cookie Consent
EmailTwitter


Observations de surface / Royaume-Uni / EGLL (03772)

Régions: Québec | Canada | États-Unis | Europe | France | UK | Ailleurs
Station
Affichage
Infos & localisation pour EGLL (03772) | Aide pour décoder les METARs

Observations prises le 2021-05-06 à 22H20 UTC à LONDON/HEATHROW, UK (EGLL)

Température: 8.0 Celsius

Point de rosée: -2.0 Celsius

Humidité relative: 49%

Vents: Ouest-nord-ouest à 13 km/h ou 7 noeuds.

Pression au niveau moyen de la mer: 101.00 kilopascals.

Visibilité horizontale: 6.21 milles terrestres ou 9.94 kilomètres.

Observation METAR:

EGLL 062220Z AUTO 29007KT 9999 NCD 08/M02 Q1010 NOSIG=